sensor_id;sensor_type;location;lat;lon;timestamp;P1;durP1;ratioP1;P2;durP2;ratioP2
9722;SDS011;4900;49.306;8.500;2022-11-11T00:02:45;11.27;;;7.40;;
9722;SDS011;4900;49.306;8.500;2022-11-11T00:05:51;10.03;;;6.87;;
9722;SDS011;4900;49.306;8.500;2022-11-11T00:08:54;10.03;;;7.03;;
9722;SDS011;4900;49.306;8.500;2022-11-11T00:11:57;9.57;;;6.10;;
9722;SDS011;4900;49.306;8.500;2022-11-11T00:14:59;9.80;;;7.13;;
9722;SDS011;4900;49.306;8.500;2022-11-11T00:18:03;7.83;;;6.47;;
9722;SDS011;4900;49.306;8.500;2022-11-11T00:21:25;10.87;;;6.53;;
9722;SDS011;4900;49.306;8.500;2022-11-11T00:24:47;9.17;;;6.37;;
9722;SDS011;4900;49.306;8.500;2022-11-11T00:28:09;12.10;;;7.23;;
9722;SDS011;4900;49.306;8.500;2022-11-11T00:31:12;12.20;;;7.07;;
9722;SDS011;4900;49.306;8.500;2022-11-11T00:34:15;11.10;;;6.57;;
9722;SDS011;4900;49.306;8.500;2022-11-11T00:37:18;12.57;;;7.07;;
9722;SDS011;4900;49.306;8.500;2022-11-11T00:40:21;10.90;;;6.40;;
9722;SDS011;4900;49.306;8.500;2022-11-11T00:43:24;9.03;;;7.10;;
9722;SDS011;4900;49.306;8.500;2022-11-11T00:46:27;7.93;;;5.87;;
9722;SDS011;4900;49.306;8.500;2022-11-11T00:49:49;6.07;;;5.17;;
9722;SDS011;4900;49.306;8.500;2022-11-11T00:53:12;10.17;;;6.33;;
9722;SDS011;4900;49.306;8.500;2022-11-11T00:56:20;7.67;;;5.97;;
9722;SDS011;4900;49.306;8.500;2022-11-11T00:59:24;7.80;;;5.90;;
9722;SDS011;4900;49.306;8.500;2022-11-11T01:02:26;6.67;;;5.60;;
9722;SDS011;4900;49.306;8.500;2022-11-11T01:05:29;7.23;;;5.60;;
9722;SDS011;4900;49.306;8.500;2022-11-11T01:08:32;9.50;;;5.77;;
9722;SDS011;4900;49.306;8.500;2022-11-11T01:11:35;9.20;;;5.63;;
9722;SDS011;4900;49.306;8.500;2022-11-11T01:14:38;7.73;;;5.03;;
9722;SDS011;4900;49.306;8.500;2022-11-11T01:17:41;6.13;;;5.00;;
9722;SDS011;4900;49.306;8.500;2022-11-11T01:20:44;6.47;;;4.87;;
9722;SDS011;4900;49.306;8.500;2022-11-11T01:23:48;5.77;;;4.70;;
9722;SDS011;4900;49.306;8.500;2022-11-11T01:26:52;5.53;;;4.60;;
9722;SDS011;4900;49.306;8.500;2022-11-11T01:29:55;5.97;;;4.60;;
9722;SDS011;4900;49.306;8.500;2022-11-11T01:32:58;5.23;;;4.13;;
9722;SDS011;4900;49.306;8.500;2022-11-11T01:36:11;5.20;;;4.20;;
9722;SDS011;4900;49.306;8.500;2022-11-11T01:39:16;6.77;;;4.30;;
9722;SDS011;4900;49.306;8.500;2022-11-11T01:42:19;4.50;;;4.07;;
9722;SDS011;4900;49.306;8.500;2022-11-11T01:48:51;4.43;;;3.90;;
9722;SDS011;4900;49.306;8.500;2022-11-11T01:52:18;4.37;;;3.97;;
9722;SDS011;4900;49.306;8.500;2022-11-11T01:55:25;4.27;;;3.87;;
9722;SDS011;4900;49.306;8.500;2022-11-11T01:58:29;4.60;;;3.90;;
9722;SDS011;4900;49.306;8.500;2022-11-11T02:01:32;4.60;;;4.10;;
9722;SDS011;4900;49.306;8.500;2022-11-11T02:04:37;4.10;;;3.70;;
9722;SDS011;4900;49.306;8.500;2022-11-11T02:08:04;4.30;;;3.90;;
9722;SDS011;4900;49.306;8.500;2022-11-11T02:11:17;4.10;;;3.70;;
9722;SDS011;4900;49.306;8.500;2022-11-11T02:14:44;4.20;;;3.80;;
9722;SDS011;4900;49.306;8.500;2022-11-11T02:17:50;4.37;;;3.97;;
9722;SDS011;4900;49.306;8.500;2022-11-11T02:20:53;3.87;;;3.57;;
9722;SDS011;4900;49.306;8.500;2022-11-11T02:24:01;4.47;;;4.07;;
9722;SDS011;4900;49.306;8.500;2022-11-11T02:27:08;5.23;;;4.23;;
9722;SDS011;4900;49.306;8.500;2022-11-11T02:30:14;3.77;;;3.47;;
9722;SDS011;4900;49.306;8.500;2022-11-11T02:33:18;4.97;;;3.80;;
9722;SDS011;4900;49.306;8.500;2022-11-11T02:36:21;4.90;;;4.03;;
9722;SDS011;4900;49.306;8.500;2022-11-11T02:39:25;4.30;;;3.90;;
9722;SDS011;4900;49.306;8.500;2022-11-11T02:42:29;4.63;;;3.80;;
9722;SDS011;4900;49.306;8.500;2022-11-11T02:45:33;5.73;;;4.30;;
9722;SDS011;4900;49.306;8.500;2022-11-11T02:48:36;6.00;;;4.17;;
9722;SDS011;4900;49.306;8.500;2022-11-11T02:51:39;5.80;;;4.53;;
9722;SDS011;4900;49.306;8.500;2022-11-11T02:54:41;4.47;;;3.60;;
9722;SDS011;4900;49.306;8.500;2022-11-11T02:57:45;4.93;;;4.07;;
9722;SDS011;4900;49.306;8.500;2022-11-11T03:00:48;4.27;;;3.87;;
9722;SDS011;4900;49.306;8.500;2022-11-11T03:03:51;4.90;;;4.20;;
9722;SDS011;4900;49.306;8.500;2022-11-11T03:06:54;4.70;;;3.73;;
9722;SDS011;4900;49.306;8.500;2022-11-11T03:09:57;5.27;;;3.97;;
9722;SDS011;4900;49.306;8.500;2022-11-11T03:13:00;4.20;;;3.80;;
9722;SDS011;4900;49.306;8.500;2022-11-11T03:16:03;4.50;;;3.80;;
9722;SDS011;4900;49.306;8.500;2022-11-11T03:19:07;4.37;;;3.73;;
9722;SDS011;4900;49.306;8.500;2022-11-11T03:22:10;5.67;;;4.10;;
9722;SDS011;4900;49.306;8.500;2022-11-11T03:25:13;4.87;;;3.83;;
9722;SDS011;4900;49.306;8.500;2022-11-11T03:28:35;4.53;;;4.00;;
9722;SDS011;4900;49.306;8.500;2022-11-11T03:31:38;4.93;;;4.30;;
9722;SDS011;4900;49.306;8.500;2022-11-11T03:34:41;7.13;;;4.50;;
9722;SDS011;4900;49.306;8.500;2022-11-11T03:37:44;4.77;;;3.70;;
9722;SDS011;4900;49.306;8.500;2022-11-11T03:41:06;5.80;;;3.67;;
9722;SDS011;4900;49.306;8.500;2022-11-11T03:44:09;13.60;;;4.37;;
9722;SDS011;4900;49.306;8.500;2022-11-11T03:47:12;4.97;;;3.90;;
9722;SDS011;4900;49.306;8.500;2022-11-11T03:50:17;4.30;;;3.90;;
9722;SDS011;4900;49.306;8.500;2022-11-11T03:53:20;4.43;;;3.93;;
9722;SDS011;4900;49.306;8.500;2022-11-11T03:56:24;4.83;;;3.53;;
9722;SDS011;4900;49.306;8.500;2022-11-11T03:59:27;15.03;;;4.13;;
9722;SDS011;4900;49.306;8.500;2022-11-11T04:02:30;11.43;;;4.03;;
9722;SDS011;4900;49.306;8.500;2022-11-11T04:05:52;13.97;;;4.13;;
9722;SDS011;4900;49.306;8.500;2022-11-11T04:09:14;11.47;;;4.03;;
9722;SDS011;4900;49.306;8.500;2022-11-11T04:12:36;4.20;;;3.70;;
9722;SDS011;4900;49.306;8.500;2022-11-11T04:16:00;4.47;;;3.50;;
9722;SDS011;4900;49.306;8.500;2022-11-11T04:19:09;4.60;;;3.40;;
9722;SDS011;4900;49.306;8.500;2022-11-11T04:22:31;5.33;;;3.90;;
9722;SDS011;4900;49.306;8.500;2022-11-11T04:25:34;4.17;;;3.43;;
9722;SDS011;4900;49.306;8.500;2022-11-11T04:28:50;4.07;;;3.67;;
9722;SDS011;4900;49.306;8.500;2022-11-11T04:32:13;4.40;;;3.80;;
9722;SDS011;4900;49.306;8.500;2022-11-11T04:35:37;5.10;;;3.73;;
9722;SDS011;4900;49.306;8.500;2022-11-11T04:38:40;4.83;;;4.33;;
9722;SDS011;4900;49.306;8.500;2022-11-11T04:42:02;3.60;;;3.30;;
9722;SDS011;4900;49.306;8.500;2022-11-11T04:45:05;4.43;;;3.83;;
9722;SDS011;4900;49.306;8.500;2022-11-11T04:48:28;19.40;;;4.30;;
9722;SDS011;4900;49.306;8.500;2022-11-11T04:51:31;6.37;;;3.67;;
9722;SDS011;4900;49.306;8.500;2022-11-11T04:54:55;4.70;;;4.03;;
9722;SDS011;4900;49.306;8.500;2022-11-11T04:58:18;4.73;;;3.80;;
9722;SDS011;4900;49.306;8.500;2022-11-11T05:01:22;4.83;;;3.90;;
9722;SDS011;4900;49.306;8.500;2022-11-11T05:04:45;4.57;;;3.70;;
9722;SDS011;4900;49.306;8.500;2022-11-11T05:07:48;3.97;;;3.60;;
9722;SDS011;4900;49.306;8.500;2022-11-11T05:11:10;5.23;;;4.73;;
9722;SDS011;4900;49.306;8.500;2022-11-11T05:14:13;5.93;;;4.60;;
9722;SDS011;4900;49.306;8.500;2022-11-11T05:17:35;5.27;;;3.77;;
9722;SDS011;4900;49.306;8.500;2022-11-11T05:21:20;4.30;;;3.60;;
9722;SDS011;4900;49.306;8.500;2022-11-11T05:24:26;11.20;;;6.77;;
9722;SDS011;4900;49.306;8.500;2022-11-11T05:27:48;20.13;;;9.60;;
9722;SDS011;4900;49.306;8.500;2022-11-11T05:30:51;9.57;;;6.37;;
9722;SDS011;4900;49.306;8.500;2022-11-11T05:33:54;10.23;;;6.27;;
9722;SDS011;4900;49.306;8.500;2022-11-11T05:36:58;12.33;;;6.60;;
9722;SDS011;4900;49.306;8.500;2022-11-11T05:40:01;10.37;;;5.93;;
9722;SDS011;4900;49.306;8.500;2022-11-11T05:43:04;10.47;;;5.83;;
9722;SDS011;4900;49.306;8.500;2022-11-11T05:46:06;8.27;;;5.43;;
9722;SDS011;4900;49.306;8.500;2022-11-11T05:49:09;8.10;;;5.90;;
9722;SDS011;4900;49.306;8.500;2022-11-11T05:52:18;7.50;;;5.40;;
9722;SDS011;4900;49.306;8.500;2022-11-11T05:55:21;10.20;;;7.17;;
9722;SDS011;4900;49.306;8.500;2022-11-11T05:58:25;10.73;;;7.87;;
9722;SDS011;4900;49.306;8.500;2022-11-11T06:01:27;9.20;;;7.30;;
9722;SDS011;4900;49.306;8.500;2022-11-11T06:04:31;11.67;;;8.23;;
9722;SDS011;4900;49.306;8.500;2022-11-11T06:07:37;9.67;;;7.90;;
9722;SDS011;4900;49.306;8.500;2022-11-11T06:10:41;8.83;;;7.43;;
9722;SDS011;4900;49.306;8.500;2022-11-11T06:13:45;8.37;;;6.93;;
9722;SDS011;4900;49.306;8.500;2022-11-11T06:16:47;10.93;;;6.43;;
9722;SDS011;4900;49.306;8.500;2022-11-11T06:19:50;8.90;;;6.73;;
9722;SDS011;4900;49.306;8.500;2022-11-11T06:22:53;7.23;;;6.10;;
9722;SDS011;4900;49.306;8.500;2022-11-11T06:26:00;8.67;;;6.60;;
9722;SDS011;4900;49.306;8.500;2022-11-11T06:29:15;7.93;;;6.67;;
9722;SDS011;4900;49.306;8.500;2022-11-11T06:32:18;8.23;;;6.53;;
9722;SDS011;4900;49.306;8.500;2022-11-11T06:35:21;8.50;;;6.73;;
9722;SDS011;4900;49.306;8.500;2022-11-11T06:38:24;11.17;;;7.47;;
9722;SDS011;4900;49.306;8.500;2022-11-11T06:41:27;9.67;;;7.97;;
9722;SDS011;4900;49.306;8.500;2022-11-11T06:44:30;9.13;;;7.40;;
9722;SDS011;4900;49.306;8.500;2022-11-11T06:47:33;8.57;;;7.10;;
9722;SDS011;4900;49.306;8.500;2022-11-11T06:50:35;10.60;;;7.63;;
9722;SDS011;4900;49.306;8.500;2022-11-11T06:53:39;10.03;;;7.67;;
9722;SDS011;4900;49.306;8.500;2022-11-11T06:56:46;11.93;;;8.63;;
9722;SDS011;4900;49.306;8.500;2022-11-11T06:59:49;10.53;;;7.97;;
9722;SDS011;4900;49.306;8.500;2022-11-11T07:02:55;12.50;;;8.67;;
9722;SDS011;4900;49.306;8.500;2022-11-11T07:06:04;12.10;;;8.40;;
9722;SDS011;4900;49.306;8.500;2022-11-11T07:09:07;13.00;;;8.63;;
9722;SDS011;4900;49.306;8.500;2022-11-11T07:12:10;14.17;;;8.47;;
9722;SDS011;4900;49.306;8.500;2022-11-11T07:15:13;16.70;;;9.83;;
9722;SDS011;4900;49.306;8.500;2022-11-11T07:18:16;16.80;;;10.43;;
9722;SDS011;4900;49.306;8.500;2022-11-11T07:21:19;14.90;;;9.93;;
9722;SDS011;4900;49.306;8.500;2022-11-11T07:24:22;15.93;;;10.13;;
9722;SDS011;4900;49.306;8.500;2022-11-11T07:27:25;14.53;;;9.53;;
9722;SDS011;4900;49.306;8.500;2022-11-11T07:30:28;18.27;;;11.50;;
9722;SDS011;4900;49.306;8.500;2022-11-11T07:33:31;18.27;;;10.40;;
9722;SDS011;4900;49.306;8.500;2022-11-11T07:36:34;18.33;;;10.50;;
9722;SDS011;4900;49.306;8.500;2022-11-11T07:39:37;16.30;;;10.03;;
9722;SDS011;4900;49.306;8.500;2022-11-11T07:42:40;17.57;;;10.20;;
9722;SDS011;4900;49.306;8.500;2022-11-11T07:45:44;17.37;;;10.50;;
9722;SDS011;4900;49.306;8.500;2022-11-11T07:48:47;19.37;;;11.10;;
9722;SDS011;4900;49.306;8.500;2022-11-11T07:51:50;17.63;;;10.07;;
9722;SDS011;4900;49.306;8.500;2022-11-11T07:54:53;19.77;;;11.17;;
9722;SDS011;4900;49.306;8.500;2022-11-11T07:57:56;17.03;;;10.33;;
9722;SDS011;4900;49.306;8.500;2022-11-11T08:01:00;16.67;;;9.43;;
9722;SDS011;4900;49.306;8.500;2022-11-11T08:04:03;16.50;;;9.03;;
9722;SDS011;4900;49.306;8.500;2022-11-11T08:07:06;16.27;;;9.07;;
9722;SDS011;4900;49.306;8.500;2022-11-11T08:10:10;15.10;;;8.73;;
9722;SDS011;4900;49.306;8.500;2022-11-11T08:13:13;16.07;;;8.47;;
9722;SDS011;4900;49.306;8.500;2022-11-11T08:16:35;13.83;;;8.57;;
9722;SDS011;4900;49.306;8.500;2022-11-11T08:19:38;14.17;;;8.70;;
9722;SDS011;4900;49.306;8.500;2022-11-11T08:22:41;16.33;;;8.67;;
9722;SDS011;4900;49.306;8.500;2022-11-11T08:25:44;13.63;;;8.33;;
9722;SDS011;4900;49.306;8.500;2022-11-11T08:28:50;15.73;;;9.07;;
9722;SDS011;4900;49.306;8.500;2022-11-11T08:31:53;16.43;;;8.60;;
9722;SDS011;4900;49.306;8.500;2022-11-11T08:34:56;11.57;;;8.00;;
9722;SDS011;4900;49.306;8.500;2022-11-11T08:38:00;16.90;;;7.97;;
9722;SDS011;4900;49.306;8.500;2022-11-11T08:41:05;11.93;;;7.90;;
9722;SDS011;4900;49.306;8.500;2022-11-11T08:44:09;19.63;;;8.73;;
9722;SDS011;4900;49.306;8.500;2022-11-11T08:47:12;12.33;;;7.50;;
9722;SDS011;4900;49.306;8.500;2022-11-11T08:50:15;11.37;;;7.57;;
9722;SDS011;4900;49.306;8.500;2022-11-11T08:53:19;12.43;;;7.23;;
9722;SDS011;4900;49.306;8.500;2022-11-11T08:56:22;13.53;;;7.70;;
9722;SDS011;4900;49.306;8.500;2022-11-11T08:59:25;11.57;;;8.27;;
9722;SDS011;4900;49.306;8.500;2022-11-11T09:02:28;12.23;;;8.03;;
9722;SDS011;4900;49.306;8.500;2022-11-11T09:05:31;12.07;;;8.20;;
9722;SDS011;4900;49.306;8.500;2022-11-11T09:08:34;15.93;;;8.57;;
9722;SDS011;4900;49.306;8.500;2022-11-11T09:11:37;13.17;;;8.03;;
9722;SDS011;4900;49.306;8.500;2022-11-11T09:14:40;16.80;;;9.20;;
9722;SDS011;4900;49.306;8.500;2022-11-11T09:17:46;11.63;;;8.57;;
9722;SDS011;4900;49.306;8.500;2022-11-11T09:20:49;16.23;;;9.53;;
9722;SDS011;4900;49.306;8.500;2022-11-11T09:23:52;17.47;;;10.97;;
9722;SDS011;4900;49.306;8.500;2022-11-11T09:26:55;13.00;;;9.20;;
9722;SDS011;4900;49.306;8.500;2022-11-11T09:29:58;17.13;;;9.80;;
9722;SDS011;4900;49.306;8.500;2022-11-11T09:33:01;13.17;;;8.83;;
9722;SDS011;4900;49.306;8.500;2022-11-11T09:36:05;15.83;;;9.57;;
9722;SDS011;4900;49.306;8.500;2022-11-11T09:39:09;14.60;;;10.23;;
9722;SDS011;4900;49.306;8.500;2022-11-11T09:52:17;15.83;;;10.17;;
9722;SDS011;4900;49.306;8.500;2022-11-11T09:55:26;18.63;;;9.87;;
9722;SDS011;4900;49.306;8.500;2022-11-11T09:58:35;13.87;;;9.93;;
9722;SDS011;4900;49.306;8.500;2022-11-11T10:01:44;12.43;;;8.93;;
9722;SDS011;4900;49.306;8.500;2022-11-11T10:05:05;16.17;;;11.70;;
9722;SDS011;4900;49.306;8.500;2022-11-11T10:14:44;12.53;;;10.23;;
9722;SDS011;4900;49.306;8.500;2022-11-11T10:18:07;15.00;;;10.73;;
9722;SDS011;4900;49.306;8.500;2022-11-11T10:21:22;16.27;;;11.53;;
9722;SDS011;4900;49.306;8.500;2022-11-11T10:24:28;18.27;;;12.00;;
9722;SDS011;4900;49.306;8.500;2022-11-11T10:27:34;15.87;;;11.07;;
9722;SDS011;4900;49.306;8.500;2022-11-11T10:30:38;15.93;;;11.60;;
9722;SDS011;4900;49.306;8.500;2022-11-11T10:33:55;15.83;;;12.03;;
9722;SDS011;4900;49.306;8.500;2022-11-11T10:37:10;14.93;;;11.27;;
9722;SDS011;4900;49.306;8.500;2022-11-11T10:40:21;15.82;;;12.10;;
9722;SDS011;4900;49.306;8.500;2022-11-11T10:43:29;16.60;;;11.97;;
9722;SDS011;4900;49.306;8.500;2022-11-11T10:46:34;17.10;;;12.40;;
9722;SDS011;4900;49.306;8.500;2022-11-11T10:49:47;16.93;;;11.97;;
9722;SDS011;4900;49.306;8.500;2022-11-11T10:53:03;14.30;;;10.47;;
9722;SDS011;4900;49.306;8.500;2022-11-11T11:02:58;15.88;;;11.77;;
9722;SDS011;4900;49.306;8.500;2022-11-11T11:06:27;14.32;;;11.50;;
9722;SDS011;4900;49.306;8.500;2022-11-11T11:16:03;12.77;;;10.70;;
9722;SDS011;4900;49.306;8.500;2022-11-11T11:22:32;12.48;;;10.35;;
9722;SDS011;4900;49.306;8.500;2022-11-11T11:25:52;14.63;;;10.95;;
9722;SDS011;4900;49.306;8.500;2022-11-11T11:28:57;15.52;;;12.35;;
9722;SDS011;4900;49.306;8.500;2022-11-11T11:35:28;17.67;;;13.60;;
9722;SDS011;4900;49.306;8.500;2022-11-11T11:38:39;13.88;;;10.25;;
9722;SDS011;4900;49.306;8.500;2022-11-11T11:41:44;16.58;;;13.00;;
9722;SDS011;4900;49.306;8.500;2022-11-11T11:44:51;18.02;;;14.10;;
9722;SDS011;4900;49.306;8.500;2022-11-11T11:48:15;22.58;;;16.05;;
9722;SDS011;4900;49.306;8.500;2022-11-11T11:54:46;20.85;;;16.80;;
9722;SDS011;4900;49.306;8.500;2022-11-11T12:04:33;18.10;;;14.70;;
9722;SDS011;4900;49.306;8.500;2022-11-11T12:11:04;17.88;;;14.50;;
9722;SDS011;4900;49.306;8.500;2022-11-11T12:21:12;17.23;;;13.95;;
9722;SDS011;4900;49.306;8.500;2022-11-11T12:24:38;21.95;;;16.55;;
9722;SDS011;4900;49.306;8.500;2022-11-11T12:28:06;18.55;;;14.68;;
9722;SDS011;4900;49.306;8.500;2022-11-11T12:31:56;19.10;;;14.80;;
9722;SDS011;4900;49.306;8.500;2022-11-11T12:35:31;20.70;;;15.15;;
9722;SDS011;4900;49.306;8.500;2022-11-11T12:42:09;19.52;;;14.30;;
9722;SDS011;4900;49.306;8.500;2022-11-11T12:45:41;23.40;;;20.63;;
9722;SDS011;4900;49.306;8.500;2022-11-11T12:48:55;23.38;;;18.27;;
9722;SDS011;4900;49.306;8.500;2022-11-11T12:55:39;20.67;;;16.20;;
9722;SDS011;4900;49.306;8.500;2022-11-11T13:05:43;19.67;;;15.93;;
9722;SDS011;4900;49.306;8.500;2022-11-11T13:09:18;18.58;;;14.48;;
9722;SDS011;4900;49.306;8.500;2022-11-11T13:16:00;16.83;;;13.45;;
9722;SDS011;4900;49.306;8.500;2022-11-11T13:22:13;15.80;;;13.75;;
9722;SDS011;4900;49.306;8.500;2022-11-11T13:25:26;21.50;;;17.63;;
9722;SDS011;4900;49.306;8.500;2022-11-11T13:28:40;20.85;;;17.02;;
9722;SDS011;4900;49.306;8.500;2022-11-11T13:31:51;27.42;;;21.52;;
9722;SDS011;4900;49.306;8.500;2022-11-11T13:34:56;23.67;;;18.00;;
9722;SDS011;4900;49.306;8.500;2022-11-11T13:38:00;23.67;;;18.63;;
9722;SDS011;4900;49.306;8.500;2022-11-11T13:41:05;27.17;;;21.42;;
9722;SDS011;4900;49.306;8.500;2022-11-11T13:44:17;32.28;;;22.75;;
9722;SDS011;4900;49.306;8.500;2022-11-11T13:47:26;32.55;;;23.23;;
9722;SDS011;4900;49.306;8.500;2022-11-11T13:50:49;30.00;;;20.70;;
9722;SDS011;4900;49.306;8.500;2022-11-11T13:53:52;27.00;;;19.63;;
9722;SDS011;4900;49.306;8.500;2022-11-11T14:00:27;24.08;;;17.45;;
9722;SDS011;4900;49.306;8.500;2022-11-11T14:03:33;21.80;;;16.75;;
9722;SDS011;4900;49.306;8.500;2022-11-11T14:06:48;19.05;;;15.10;;
9722;SDS011;4900;49.306;8.500;2022-11-11T14:09:53;20.88;;;15.40;;
9722;SDS011;4900;49.306;8.500;2022-11-11T14:19:39;25.10;;;18.63;;
9722;SDS011;4900;49.306;8.500;2022-11-11T14:22:41;23.58;;;17.77;;
9722;SDS011;4900;49.306;8.500;2022-11-11T14:25:45;26.27;;;18.35;;
9722;SDS011;4900;49.306;8.500;2022-11-11T14:28:54;25.73;;;17.50;;
9722;SDS011;4900;49.306;8.500;2022-11-11T14:38:28;24.08;;;17.23;;
9722;SDS011;4900;49.306;8.500;2022-11-11T14:44:43;20.03;;;15.23;;
9722;SDS011;4900;49.306;8.500;2022-11-11T14:47:47;23.47;;;16.70;;
9722;SDS011;4900;49.306;8.500;2022-11-11T14:50:51;22.20;;;16.33;;
9722;SDS011;4900;49.306;8.500;2022-11-11T14:53:54;19.10;;;14.77;;
9722;SDS011;4900;49.306;8.500;2022-11-11T14:57:03;25.60;;;17.70;;
9722;SDS011;4900;49.306;8.500;2022-11-11T15:03:29;31.07;;;17.57;;
9722;SDS011;4900;49.306;8.500;2022-11-11T15:06:42;25.47;;;15.67;;
9722;SDS011;4900;49.306;8.500;2022-11-11T15:10:00;26.53;;;17.33;;
9722;SDS011;4900;49.306;8.500;2022-11-11T15:23:43;27.07;;;18.93;;
9722;SDS011;4900;49.306;8.500;2022-11-11T15:33:49;35.43;;;22.27;;
9722;SDS011;4900;49.306;8.500;2022-11-11T15:37:11;79.33;;;21.40;;
9722;SDS011;4900;49.306;8.500;2022-11-11T15:40:20;47.37;;;20.40;;
9722;SDS011;4900;49.306;8.500;2022-11-11T15:43:28;38.13;;;19.20;;
9722;SDS011;4900;49.306;8.500;2022-11-11T15:46:35;52.70;;;18.93;;
9722;SDS011;4900;49.306;8.500;2022-11-11T15:49:46;35.47;;;18.70;;
9722;SDS011;4900;49.306;8.500;2022-11-11T15:52:53;29.53;;;17.07;;
9722;SDS011;4900;49.306;8.500;2022-11-11T15:55:57;31.03;;;17.00;;
9722;SDS011;4900;49.306;8.500;2022-11-11T15:59:17;62.53;;;16.37;;
9722;SDS011;4900;49.306;8.500;2022-11-11T16:02:32;27.87;;;15.47;;
9722;SDS011;4900;49.306;8.500;2022-11-11T16:05:37;23.50;;;15.63;;
9722;SDS011;4900;49.306;8.500;2022-11-11T16:08:41;31.33;;;16.87;;
9722;SDS011;4900;49.306;8.500;2022-11-11T16:11:45;24.20;;;16.37;;
9722;SDS011;4900;49.306;8.500;2022-11-11T16:14:48;24.17;;;16.00;;
9722;SDS011;4900;49.306;8.500;2022-11-11T16:17:58;26.23;;;17.07;;
9722;SDS011;4900;49.306;8.500;2022-11-11T16:21:05;21.33;;;14.80;;
9722;SDS011;4900;49.306;8.500;2022-11-11T16:24:33;24.77;;;16.03;;
9722;SDS011;4900;49.306;8.500;2022-11-11T16:27:41;23.30;;;15.13;;
9722;SDS011;4900;49.306;8.500;2022-11-11T16:30:44;24.67;;;16.13;;
9722;SDS011;4900;49.306;8.500;2022-11-11T16:33:47;23.47;;;15.50;;
9722;SDS011;4900;49.306;8.500;2022-11-11T16:37:03;44.60;;;16.13;;
9722;SDS011;4900;49.306;8.500;2022-11-11T16:43:32;44.27;;;15.10;;
9722;SDS011;4900;49.306;8.500;2022-11-11T16:46:43;64.37;;;14.00;;
9722;SDS011;4900;49.306;8.500;2022-11-11T16:49:46;60.27;;;15.10;;
9722;SDS011;4900;49.306;8.500;2022-11-11T16:53:32;44.67;;;14.80;;
9722;SDS011;4900;49.306;8.500;2022-11-11T16:56:43;22.53;;;15.43;;
9722;SDS011;4900;49.306;8.500;2022-11-11T16:59:54;60.20;;;14.97;;
9722;SDS011;4900;49.306;8.500;2022-11-11T17:03:21;66.07;;;15.50;;
9722;SDS011;4900;49.306;8.500;2022-11-11T17:06:44;52.80;;;15.53;;
9722;SDS011;4900;49.306;8.500;2022-11-11T17:09:52;49.13;;;14.87;;
9722;SDS011;4900;49.306;8.500;2022-11-11T17:12:57;24.10;;;14.57;;
9722;SDS011;4900;49.306;8.500;2022-11-11T17:16:01;26.80;;;14.37;;
9722;SDS011;4900;49.306;8.500;2022-11-11T17:19:06;32.37;;;16.20;;
9722;SDS011;4900;49.306;8.500;2022-11-11T17:22:10;34.30;;;15.07;;
9722;SDS011;4900;49.306;8.500;2022-11-11T17:25:13;25.73;;;15.40;;
9722;SDS011;4900;49.306;8.500;2022-11-11T17:28:17;58.93;;;18.00;;
9722;SDS011;4900;49.306;8.500;2022-11-11T17:31:21;29.17;;;16.90;;
9722;SDS011;4900;49.306;8.500;2022-11-11T17:34:26;31.37;;;18.13;;
9722;SDS011;4900;49.306;8.500;2022-11-11T17:37:32;32.80;;;18.27;;
9722;SDS011;4900;49.306;8.500;2022-11-11T17:40:36;29.23;;;17.67;;
9722;SDS011;4900;49.306;8.500;2022-11-11T17:43:42;28.50;;;18.23;;
9722;SDS011;4900;49.306;8.500;2022-11-11T17:46:45;29.00;;;18.63;;
9722;SDS011;4900;49.306;8.500;2022-11-11T17:49:48;27.50;;;18.20;;
9722;SDS011;4900;49.306;8.500;2022-11-11T17:52:53;34.13;;;16.47;;
9722;SDS011;4900;49.306;8.500;2022-11-11T17:55:59;22.53;;;14.80;;
9722;SDS011;4900;49.306;8.500;2022-11-11T17:59:05;33.00;;;13.90;;
9722;SDS011;4900;49.306;8.500;2022-11-11T18:02:11;25.80;;;13.47;;
9722;SDS011;4900;49.306;8.500;2022-11-11T18:05:15;26.97;;;13.53;;
9722;SDS011;4900;49.306;8.500;2022-11-11T18:08:18;27.13;;;13.60;;
9722;SDS011;4900;49.306;8.500;2022-11-11T18:11:21;24.83;;;13.27;;
9722;SDS011;4900;49.306;8.500;2022-11-11T18:14:24;26.33;;;13.30;;
9722;SDS011;4900;49.306;8.500;2022-11-11T18:17:28;27.07;;;14.10;;
9722;SDS011;4900;49.306;8.500;2022-11-11T18:20:31;20.23;;;13.27;;
9722;SDS011;4900;49.306;8.500;2022-11-11T18:23:34;18.13;;;12.47;;
9722;SDS011;4900;49.306;8.500;2022-11-11T18:26:39;21.13;;;13.70;;
9722;SDS011;4900;49.306;8.500;2022-11-11T18:29:42;24.60;;;15.37;;
9722;SDS011;4900;49.306;8.500;2022-11-11T18:32:44;32.70;;;15.80;;
9722;SDS011;4900;49.306;8.500;2022-11-11T18:35:48;40.67;;;18.63;;
9722;SDS011;4900;49.306;8.500;2022-11-11T18:38:53;28.00;;;17.13;;
9722;SDS011;4900;49.306;8.500;2022-11-11T18:41:57;22.90;;;16.43;;
9722;SDS011;4900;49.306;8.500;2022-11-11T18:45:00;25.47;;;17.37;;
9722;SDS011;4900;49.306;8.500;2022-11-11T18:48:04;26.23;;;16.77;;
9722;SDS011;4900;49.306;8.500;2022-11-11T18:51:07;27.90;;;18.00;;
9722;SDS011;4900;49.306;8.500;2022-11-11T18:54:12;26.67;;;18.17;;
9722;SDS011;4900;49.306;8.500;2022-11-11T18:57:15;41.23;;;18.10;;
9722;SDS011;4900;49.306;8.500;2022-11-11T19:00:18;51.27;;;18.17;;
9722;SDS011;4900;49.306;8.500;2022-11-11T19:03:23;53.63;;;16.53;;
9722;SDS011;4900;49.306;8.500;2022-11-11T19:06:26;39.80;;;15.00;;
9722;SDS011;4900;49.306;8.500;2022-11-11T19:09:30;32.60;;;13.83;;
9722;SDS011;4900;49.306;8.500;2022-11-11T19:12:34;28.73;;;14.50;;
9722;SDS011;4900;49.306;8.500;2022-11-11T19:15:37;24.00;;;15.37;;
9722;SDS011;4900;49.306;8.500;2022-11-11T19:18:40;25.00;;;15.20;;
9722;SDS011;4900;49.306;8.500;2022-11-11T19:21:44;22.57;;;15.07;;
9722;SDS011;4900;49.306;8.500;2022-11-11T19:24:47;23.17;;;14.97;;
9722;SDS011;4900;49.306;8.500;2022-11-11T19:27:53;25.50;;;14.53;;
9722;SDS011;4900;49.306;8.500;2022-11-11T19:31:00;24.30;;;14.17;;
9722;SDS011;4900;49.306;8.500;2022-11-11T19:34:09;19.70;;;12.23;;
9722;SDS011;4900;49.306;8.500;2022-11-11T19:37:12;20.47;;;13.03;;
9722;SDS011;4900;49.306;8.500;2022-11-11T19:40:15;20.40;;;12.50;;
9722;SDS011;4900;49.306;8.500;2022-11-11T19:43:19;37.60;;;11.93;;
9722;SDS011;4900;49.306;8.500;2022-11-11T19:46:22;18.17;;;11.00;;
9722;SDS011;4900;49.306;8.500;2022-11-11T19:49:26;32.33;;;11.17;;
9722;SDS011;4900;49.306;8.500;2022-11-11T19:52:30;75.20;;;12.07;;
9722;SDS011;4900;49.306;8.500;2022-11-11T19:55:33;25.33;;;11.17;;
9722;SDS011;4900;49.306;8.500;2022-11-11T19:58:39;17.27;;;11.20;;
9722;SDS011;4900;49.306;8.500;2022-11-11T20:01:43;14.40;;;10.80;;
9722;SDS011;4900;49.306;8.500;2022-11-11T20:04:45;21.70;;;12.40;;
9722;SDS011;4900;49.306;8.500;2022-11-11T20:07:52;19.03;;;12.33;;
9722;SDS011;4900;49.306;8.500;2022-11-11T20:11:03;17.87;;;10.60;;
9722;SDS011;4900;49.306;8.500;2022-11-11T20:14:08;13.63;;;9.60;;
9722;SDS011;4900;49.306;8.500;2022-11-11T20:17:11;15.83;;;9.93;;
9722;SDS011;4900;49.306;8.500;2022-11-11T20:20:14;18.17;;;10.00;;
9722;SDS011;4900;49.306;8.500;2022-11-11T20:23:18;14.87;;;9.47;;
9722;SDS011;4900;49.306;8.500;2022-11-11T20:26:21;14.80;;;10.43;;
9722;SDS011;4900;49.306;8.500;2022-11-11T20:29:25;22.63;;;9.13;;
9722;SDS011;4900;49.306;8.500;2022-11-11T20:32:28;19.97;;;9.80;;
9722;SDS011;4900;49.306;8.500;2022-11-11T20:35:32;19.87;;;8.90;;
9722;SDS011;4900;49.306;8.500;2022-11-11T20:38:35;13.87;;;8.47;;
9722;SDS011;4900;49.306;8.500;2022-11-11T20:41:38;12.47;;;9.33;;
9722;SDS011;4900;49.306;8.500;2022-11-11T20:44:41;23.87;;;9.33;;
9722;SDS011;4900;49.306;8.500;2022-11-11T20:47:44;11.63;;;8.77;;
9722;SDS011;4900;49.306;8.500;2022-11-11T20:50:47;17.43;;;10.27;;
9722;SDS011;4900;49.306;8.500;2022-11-11T20:53:51;13.20;;;10.00;;
9722;SDS011;4900;49.306;8.500;2022-11-11T20:56:56;18.80;;;9.57;;
9722;SDS011;4900;49.306;8.500;2022-11-11T20:59:59;14.37;;;10.07;;
9722;SDS011;4900;49.306;8.500;2022-11-11T21:03:02;15.53;;;9.27;;
9722;SDS011;4900;49.306;8.500;2022-11-11T21:06:15;11.87;;;8.80;;
9722;SDS011;4900;49.306;8.500;2022-11-11T21:09:19;32.23;;;8.27;;